Time;durP1;ratioP1;P1;durP2;ratioP2;P2;SDS_P1;SDS_P2;PMS_P1;PMS_P2;Temp;Humidity;BMP_temperature;BMP_pressure;BME280_temperature;BME280_humidity;BME280_pressure;Samples;Min_cycle;Max_cycle;Signal;HPM_P1;HPM_P2
2023/06/30 00:01:57;;;;;;;4.13;2.03;;;19.40;47.50;;;;;;5040018;28;20477;-80
2023/06/30 00:04:28;;;;;;;2.73;1.53;;;19.30;99.90;;;;;;5040356;28;20458;-80
2023/06/30 00:06:56;;;;;;;2.70;1.83;;;19.30;62.80;;;;;;5038023;28;20583;-78
2023/06/30 00:09:25;;;;;;;2.53;1.30;;;19.30;99.90;;;;;;5038705;28;20492;-78
2023/06/30 00:11:53;;;;;;;2.63;2.03;;;19.30;99.90;;;;;;5042507;28;20468;-77
2023/06/30 00:14:21;;;;;;;3.40;2.00;;;19.10;99.90;;;;;;5058574;28;20454;-81
2023/06/30 00:16:48;;;;;;;2.97;1.67;;;19.20;56.50;;;;;;5051013;28;20455;-78
2023/06/30 00:19:15;;;;;;;3.23;1.70;;;19.20;1.00;;;;;;5039088;28;20457;-80
2023/06/30 00:21:41;;;;;;;4.90;1.63;;;19.10;99.90;;;;;;5038172;28;20842;-80
2023/06/30 00:24:10;;;;;;;2.27;1.40;;;19.10;1.00;;;;;;5038737;28;20449;-79
2023/06/30 00:26:38;;;;;;;3.13;1.27;;;19.10;99.90;;;;;;5038524;28;20543;-81
2023/06/30 00:29:05;;;;;;;3.00;1.33;;;19.10;99.90;;;;;;5038132;28;20493;-80
2023/06/30 00:31:32;;;;;;;2.10;1.30;;;19.00;14.50;;;;;;5051719;28;20484;-79
2023/06/30 00:33:59;;;;;;;2.43;1.33;;;19.10;1.00;;;;;;5057927;28;20461;-80
2023/06/30 00:36:26;;;;;;;3.07;1.23;;;19.00;99.90;;;;;;5057965;28;20447;-78
2023/06/30 00:38:54;;;;;;;3.77;1.37;;;19.10;99.90;;;;;;5042511;28;20540;-80
2023/06/30 00:41:21;;;;;;;2.40;1.20;;;19.00;1.00;;;;;;5037250;28;21197;-78
2023/06/30 00:43:50;;;;;;;8.60;1.50;;;19.00;1.00;;;;;;5057412;28;20452;-80
2023/06/30 00:46:17;;;;;;;4.90;1.60;;;18.90;99.90;;;;;;5049899;28;21023;-79
2023/06/30 00:48:45;;;;;;;2.50;1.13;;;18.90;99.90;;;;;;5038711;28;20461;-81
2023/06/30 00:51:12;;;;;;;3.20;1.10;;;18.90;1.00;;;;;;5038239;28;20480;-80
2023/06/30 00:56:26;;;;;;;2.87;1.37;;;18.80;99.90;;;;;;5036359;28;20468;-83
2023/06/30 00:58:56;;;;;;;2.77;1.43;;;18.70;92.40;;;;;;5040366;28;20872;-82
2023/06/30 01:01:42;;;;;;;3.93;1.60;;;18.60;99.90;;;;;;5050490;28;20444;-83
2023/06/30 01:04:17;;;;;;;3.90;1.50;;;18.50;94.10;;;;;;5052469;28;20465;-83
2023/06/30 01:06:54;;;;;;;3.10;1.37;;;18.50;99.90;;;;;;5051270;28;20433;-82
2023/06/30 01:09:24;;;;;;;4.40;1.60;;;18.30;99.90;;;;;;5051627;28;20944;-82
2023/06/30 01:11:52;;;;;;;4.17;2.43;;;18.30;99.90;;;;;;5045222;28;20514;-82
2023/06/30 01:14:22;;;;;;;3.07;1.67;;;18.20;1.00;;;;;;5014490;28;20478;-81
2023/06/30 01:16:51;;;;;;;4.30;1.77;;;18.20;1.00;;;;;;5015087;28;20460;-83
2023/06/30 01:19:26;;;;;;;3.63;1.67;;;18.20;1.00;;;;;;5014422;28;20445;-80
2023/06/30 01:21:56;;;;;;;4.00;1.70;;;18.10;1.00;;;;;;5014050;28;21016;-79
2023/06/30 01:24:27;;;;;;;4.63;2.93;;;18.10;1.00;;;;;;5019381;28;20666;-80
2023/06/30 01:26:54;;;;;;;4.60;2.00;;;18.00;1.00;;;;;;5024918;28;20449;-81
2023/06/30 01:29:23;;;;;;;3.10;2.20;;;17.90;1.00;;;;;;5034288;28;20497;-82
2023/06/30 01:31:50;;;;;;;4.90;2.20;;;17.90;1.00;;;;;;5021326;28;20484;-82
2023/06/30 01:34:17;;;;;;;3.93;2.27;;;17.80;1.00;;;;;;5013585;28;20486;-81
2023/06/30 01:36:43;;;;;;;6.80;2.70;;;17.90;41.40;;;;;;5014757;28;20499;-81
2023/06/30 01:39:10;;;;;;;5.57;2.17;;;17.80;58.40;;;;;;5019871;28;20542;-82
2023/06/30 01:41:37;;;;;;;6.40;2.60;;;17.80;89.50;;;;;;5020668;28;20461;-80
2023/06/30 01:44:05;;;;;;;3.77;2.17;;;17.80;99.00;;;;;;5015635;28;20480;-81
2023/06/30 01:46:33;;;;;;;3.50;1.93;;;17.80;99.90;;;;;;5013182;28;20665;-81
2023/06/30 01:49:00;;;;;;;4.70;2.87;;;17.80;99.90;;;;;;5014387;28;20479;-81
2023/06/30 01:51:27;;;;;;;10.00;3.10;;;17.90;99.90;;;;;;5013508;28;20456;-81
2023/06/30 01:53:54;;;;;;;3.70;2.60;;;17.80;99.90;;;;;;5013937;28;20494;-79
2023/06/30 01:56:21;;;;;;;3.90;2.67;;;17.80;99.90;;;;;;5013098;28;20464;-81
2023/06/30 01:58:47;;;;;;;4.50;2.40;;;17.80;99.90;;;;;;5013315;28;20448;-80
2023/06/30 02:01:14;;;;;;;8.60;2.90;;;17.80;99.90;;;;;;5013315;28;20550;-80
2023/06/30 02:03:42;;;;;;;5.60;3.10;;;17.80;99.90;;;;;;5013700;28;20457;-81
2023/06/30 02:06:10;;;;;;;6.73;2.70;;;17.80;99.90;;;;;;5013270;28;20476;-80
2023/06/30 02:08:36;;;;;;;5.50;3.40;;;17.80;99.90;;;;;;5011944;28;20557;-80
2023/06/30 02:11:03;;;;;;;8.10;3.17;;;17.90;99.90;;;;;;5014105;28;20488;-81
2023/06/30 02:13:30;;;;;;;7.20;3.00;;;17.80;99.90;;;;;;5013170;28;20913;-80
2023/06/30 02:15:57;;;;;;;3.90;3.47;;;17.80;99.90;;;;;;5012530;28;20557;-80
2023/06/30 02:18:25;;;;;;;6.00;3.30;;;17.80;99.90;;;;;;5013067;28;20484;-80
2023/06/30 02:20:53;;;;;;;6.63;4.37;;;17.70;99.90;;;;;;5012788;28;20457;-82
2023/06/30 02:23:20;;;;;;;5.87;4.03;;;17.80;99.90;;;;;;5013384;28;20456;-81
2023/06/30 02:25:46;;;;;;;7.83;5.70;;;17.70;99.90;;;;;;5012799;28;20580;-80
2023/06/30 02:28:13;;;;;;;6.47;4.00;;;17.60;99.90;;;;;;5013710;28;20460;-81
2023/06/30 02:30:40;;;;;;;5.07;3.60;;;17.60;99.90;;;;;;5013471;28;21075;-80
2023/06/30 02:33:07;;;;;;;7.20;3.50;;;17.60;99.90;;;;;;5013188;28;20464;-81
2023/06/30 02:35:34;;;;;;;9.03;4.40;;;17.50;99.90;;;;;;5012735;28;20482;-81
2023/06/30 02:38:03;;;;;;;8.10;4.10;;;17.50;99.90;;;;;;5013805;28;20498;-81
2023/06/30 02:40:30;;;;;;;6.10;4.00;;;17.50;99.90;;;;;;5018755;28;20491;-80
2023/06/30 02:42:57;;;;;;;8.53;5.23;;;17.50;99.90;;;;;;5016409;28;20830;-81
2023/06/30 02:45:24;;;;;;;5.83;4.53;;;17.50;99.90;;;;;;5016469;28;20481;-80
2023/06/30 02:47:50;;;;;;;5.33;4.00;;;17.50;99.90;;;;;;5016063;28;20451;-80
2023/06/30 02:50:18;;;;;;;4.33;3.57;;;17.50;99.90;;;;;;5017091;28;20496;-80
2023/06/30 02:52:45;;;;;;;5.80;4.60;;;17.50;99.90;;;;;;5016727;28;20457;-80
2023/06/30 02:55:13;;;;;;;9.07;5.03;;;17.50;99.90;;;;;;5015557;28;20484;-79
2023/06/30 02:57:40;;;;;;;4.60;4.07;;;17.50;99.90;;;;;;5016009;28;20454;-79
2023/06/30 03:00:09;;;;;;;7.93;5.20;;;17.50;99.90;;;;;;5016370;28;20547;-80
2023/06/30 03:02:36;;;;;;;8.10;4.73;;;17.50;99.90;;;;;;5016217;28;20460;-80
2023/06/30 03:05:04;;;;;;;4.03;3.60;;;17.50;99.90;;;;;;5015822;28;20480;-80
2023/06/30 03:07:32;;;;;;;7.20;3.90;;;17.50;99.90;;;;;;5016371;28;20545;-80
2023/06/30 03:09:58;;;;;;;4.40;3.67;;;17.50;99.90;;;;;;5017034;28;20488;-81
2023/06/30 03:12:26;;;;;;;4.63;3.83;;;17.50;99.90;;;;;;5016358;28;20457;-80
2023/06/30 03:14:54;;;;;;;4.97;3.63;;;17.50;99.90;;;;;;5016642;28;20586;-80
2023/06/30 03:17:21;;;;;;;6.87;3.77;;;17.50;99.90;;;;;;5016511;28;20475;-80
2023/06/30 03:19:47;;;;;;;5.07;3.03;;;17.40;99.90;;;;;;5016313;28;20463;-80
2023/06/30 03:22:14;;;;;;;7.33;4.10;;;17.50;99.90;;;;;;5016170;28;20448;-80
2023/06/30 03:24:41;;;;;;;8.00;3.63;;;17.40;99.90;;;;;;5015820;28;20475;-79
2023/06/30 03:27:08;;;;;;;7.40;3.03;;;17.40;99.90;;;;;;5016261;28;20480;-80
2023/06/30 03:29:36;;;;;;;7.93;2.97;;;17.40;99.90;;;;;;5016354;28;20550;-80
2023/06/30 03:32:03;;;;;;;6.70;4.20;;;17.30;99.90;;;;;;5015146;28;20451;-81
2023/06/30 03:34:30;;;;;;;7.90;4.57;;;17.30;99.90;;;;;;5016159;28;20491;-79
2023/06/30 03:36:57;;;;;;;5.83;3.20;;;17.30;99.90;;;;;;5021162;28;20480;-82
2023/06/30 03:39:23;;;;;;;6.97;3.40;;;17.30;99.90;;;;;;5025839;28;20458;-80
2023/06/30 03:41:50;;;;;;;4.70;3.23;;;17.30;99.90;;;;;;5015278;28;20462;-80
2023/06/30 03:44:18;;;;;;;4.70;3.43;;;17.20;99.90;;;;;;5020199;28;20488;-80
2023/06/30 03:46:46;;;;;;;4.77;3.33;;;17.10;99.90;;;;;;5018615;28;20460;-79
2023/06/30 03:49:12;;;;;;;3.93;3.13;;;17.10;99.90;;;;;;5016473;28;20454;-80
2023/06/30 03:51:40;;;;;;;6.23;3.27;;;17.10;99.90;;;;;;5015200;28;21009;-81
2023/06/30 03:54:08;;;;;;;11.20;3.10;;;17.10;99.90;;;;;;5016225;28;20914;-82
2023/06/30 03:56:34;;;;;;;4.83;3.50;;;17.10;99.90;;;;;;5025001;28;20465;-80
2023/06/30 03:59:01;;;;;;;4.90;3.10;;;17.20;99.90;;;;;;5027796;28;20451;-80
2023/06/30 04:01:28;;;;;;;6.33;3.13;;;17.20;99.90;;;;;;5030437;28;20453;-81
2023/06/30 04:03:56;;;;;;;5.80;3.43;;;17.20;99.90;;;;;;5025735;28;20455;-81
2023/06/30 04:06:23;;;;;;;4.77;3.53;;;17.20;99.90;;;;;;5017678;28;20955;-81
2023/06/30 04:08:50;;;;;;;5.20;3.60;;;17.30;99.90;;;;;;5023284;28;20550;-81
2023/06/30 04:11:17;;;;;;;5.60;3.17;;;17.10;99.90;;;;;;5024628;28;20486;-81
2023/06/30 04:13:44;;;;;;;6.00;4.13;;;17.10;99.90;;;;;;5021482;28;20536;-82
2023/06/30 04:16:11;;;;;;;5.20;3.90;;;17.10;99.90;;;;;;5022135;28;20468;-81
2023/06/30 04:18:39;;;;;;;6.90;3.60;;;17.10;99.90;;;;;;5030978;28;20820;-81
2023/06/30 04:21:07;;;;;;;10.00;5.10;;;17.10;99.90;;;;;;5029065;28;20909;-81
2023/06/30 04:23:34;;;;;;;6.60;3.40;;;17.00;99.90;;;;;;5025980;28;20541;-81
2023/06/30 04:26:01;;;;;;;5.60;3.87;;;17.00;99.90;;;;;;5018550;28;20479;-82
2023/06/30 04:28:28;;;;;;;9.73;5.63;;;17.10;99.90;;;;;;5018367;28;20450;-83
2023/06/30 04:30:55;;;;;;;9.60;5.83;;;17.10;99.90;;;;;;5018243;28;20588;-82
2023/06/30 04:33:22;;;;;;;8.00;4.13;;;17.10;99.90;;;;;;5018961;28;20998;-84
2023/06/30 04:35:49;;;;;;;7.93;3.83;;;17.10;99.90;;;;;;5019220;28;20490;-82
2023/06/30 04:38:19;;;;;;;4.90;4.00;;;17.10;99.90;;;;;;5020066;28;20457;-82
2023/06/30 04:40:46;;;;;;;5.70;3.80;;;17.10;99.90;;;;;;5019618;28;20463;-83
2023/06/30 04:43:13;;;;;;;7.87;3.63;;;17.10;99.90;;;;;;5021055;28;20461;-82
2023/06/30 04:45:40;;;;;;;5.60;2.90;;;17.10;99.90;;;;;;5019131;28;20547;-83
2023/06/30 04:48:07;;;;;;;5.57;3.13;;;17.10;99.90;;;;;;5020584;28;20549;-83
2023/06/30 04:50:34;;;;;;;7.53;3.10;;;17.00;99.90;;;;;;5022820;28;20517;-82
2023/06/30 04:53:01;;;;;;;5.90;3.07;;;17.00;99.90;;;;;;5025381;28;20533;-81
2023/06/30 04:55:29;;;;;;;4.63;3.03;;;17.00;99.90;;;;;;5024035;28;20574;-82
2023/06/30 04:57:56;;;;;;;6.63;2.73;;;16.90;99.90;;;;;;5017115;28;20461;-81
2023/06/30 05:00:25;;;;;;;9.80;3.47;;;17.00;99.90;;;;;;5018291;28;20543;-83
2023/06/30 05:02:52;;;;;;;6.23;2.50;;;16.90;99.90;;;;;;5017533;28;20524;-82
2023/06/30 05:05:19;;;;;;;6.03;2.87;;;17.00;99.90;;;;;;5019637;28;20480;-83
2023/06/30 05:07:46;;;;;;;5.93;2.90;;;16.90;99.90;;;;;;5018068;28;20554;-80
2023/06/30 05:10:13;;;;;;;7.87;3.90;;;17.00;99.90;;;;;;4993026;28;20548;-81
2023/06/30 05:12:42;;;;;;;4.30;2.20;;;17.00;99.90;;;;;;5012587;28;20541;-81
2023/06/30 05:15:09;;;;;;;7.20;2.63;;;17.00;99.90;;;;;;5013413;28;21067;-80
2023/06/30 05:17:36;;;;;;;5.30;2.37;;;16.90;99.90;;;;;;5006386;28;20447;-81
2023/06/30 05:20:05;;;;;;;7.00;2.63;;;16.90;99.90;;;;;;5002306;28;20588;-80
2023/06/30 05:22:32;;;;;;;5.27;2.80;;;16.90;99.90;;;;;;5011417;28;20973;-81
2023/06/30 05:24:58;;;;;;;7.40;2.83;;;16.90;99.90;;;;;;5012899;28;20488;-81
2023/06/30 05:27:25;;;;;;;7.43;3.70;;;16.90;99.90;;;;;;5013323;28;20837;-80
2023/06/30 05:29:53;;;;;;;7.50;3.53;;;16.90;99.90;;;;;;5013910;28;20458;-81
2023/06/30 05:32:20;;;;;;;7.27;3.33;;;17.00;99.90;;;;;;5011202;28;20561;-80
2023/06/30 05:34:47;;;;;;;7.03;4.57;;;17.10;99.90;;;;;;5011922;28;20597;-80
2023/06/30 05:37:14;;;;;;;5.53;3.03;;;17.10;99.90;;;;;;5013141;28;20839;-81
2023/06/30 05:39:41;;;;;;;14.73;6.57;;;17.30;99.90;;;;;;5013486;28;20532;-81
2023/06/30 05:42:08;;;;;;;5.47;2.90;;;17.30;99.90;;;;;;5013775;28;20456;-80
2023/06/30 05:44:35;;;;;;;8.77;3.57;;;17.40;99.90;;;;;;5012612;28;20496;-80
2023/06/30 05:47:04;;;;;;;8.63;2.90;;;17.40;99.90;;;;;;5013764;28;20452;-80
2023/06/30 05:49:31;;;;;;;7.30;3.03;;;17.50;99.90;;;;;;5011862;28;20550;-81
2023/06/30 05:51:57;;;;;;;5.73;3.10;;;17.50;99.90;;;;;;5012870;28;20518;-80
2023/06/30 05:54:24;;;;;;;5.93;3.67;;;17.50;99.90;;;;;;5012271;28;20807;-81
2023/06/30 05:56:51;;;;;;;7.57;3.10;;;17.50;99.90;;;;;;5011791;28;20844;-80
2023/06/30 05:59:18;;;;;;;9.37;3.33;;;17.60;99.90;;;;;;5012938;28;20457;-80
2023/06/30 06:01:44;;;;;;;5.77;3.10;;;17.50;99.90;;;;;;5012470;28;20458;-80
2023/06/30 06:04:13;;;;;;;7.67;3.10;;;17.60;99.90;;;;;;5011487;28;20911;-80
2023/06/30 06:06:39;;;;;;;8.63;3.10;;;17.60;99.90;;;;;;5012629;28;20960;-80
2023/06/30 06:09:07;;;;;;;5.60;2.17;;;17.70;99.90;;;;;;5008748;28;20464;-80
2023/06/30 06:11:33;;;;;;;8.40;3.00;;;17.60;99.90;;;;;;5005883;28;20477;-81
2023/06/30 06:14:00;;;;;;;3.40;2.20;;;17.60;99.90;;;;;;5008146;28;20461;-80
2023/06/30 06:16:27;;;;;;;6.73;2.53;;;17.60;99.90;;;;;;5009157;28;20476;-81
2023/06/30 06:18:54;;;;;;;6.87;3.00;;;17.50;99.90;;;;;;5006714;28;20844;-80
2023/06/30 06:21:27;;;;;;;6.93;1.80;;;17.50;99.90;;;;;;5007057;28;20548;-80
2023/06/30 06:23:55;;;;;;;5.77;1.80;;;17.40;99.90;;;;;;5009003;28;20854;-81
2023/06/30 06:26:22;;;;;;;6.70;2.03;;;17.50;99.90;;;;;;5010772;28;20552;-82
2023/06/30 06:28:49;;;;;;;5.00;2.63;;;17.40;73.50;;;;;;5011885;28;20456;-81
2023/06/30 06:31:16;;;;;;;3.90;1.70;;;17.30;98.10;;;;;;5011863;28;20498;-81
2023/06/30 06:33:43;;;;;;;3.13;1.63;;;17.30;80.20;;;;;;5008291;28;20455;-81
2023/06/30 06:36:11;;;;;;;4.33;1.60;;;17.20;83.00;;;;;;5009621;28;20513;-82
2023/06/30 06:38:39;;;;;;;4.10;1.77;;;17.30;59.10;;;;;;5012838;28;20467;-81
2023/06/30 06:41:06;;;;;;;2.70;1.70;;;17.30;39.60;;;;;;5009148;28;20452;-82
2023/06/30 06:43:33;;;;;;;2.93;1.30;;;17.40;1.00;;;;;;5011003;28;20842;-81
2023/06/30 06:46:00;;;;;;;3.47;1.40;;;17.40;1.00;;;;;;5009075;28;20483;-81
2023/06/30 06:48:28;;;;;;;4.90;1.47;;;17.50;1.00;;;;;;5014617;28;20576;-81
2023/06/30 06:50:57;;;;;;;5.37;1.70;;;17.50;1.00;;;;;;5014459;28;20605;-81
2023/06/30 06:53:27;;;;;;;4.43;1.93;;;17.50;1.00;;;;;;5014409;28;20454;-81
2023/06/30 06:55:56;;;;;;;3.87;1.87;;;17.60;1.00;;;;;;5069673;22;21021;-82
2023/06/30 06:58:23;;;;;;;4.30;2.03;;;17.70;1.00;;;;;;5067264;28;20459;-81
2023/06/30 07:00:52;;;;;;;5.33;2.00;;;17.60;31.40;;;;;;5068966;28;20496;-80
2023/06/30 07:03:20;;;;;;;5.67;2.10;;;17.70;1.20;;;;;;5070177;28;20537;-81
2023/06/30 07:05:47;;;;;;;4.70;2.70;;;17.60;1.00;;;;;;5068271;28;20496;-83
2023/06/30 07:08:15;;;;;;;6.33;2.00;;;17.60;5.80;;;;;;5071146;28;20458;-83
2023/06/30 07:10:43;;;;;;;5.40;2.07;;;17.60;26.20;;;;;;5065983;28;20518;-83
2023/06/30 07:13:12;;;;;;;6.43;2.20;;;17.60;43.70;;;;;;5063400;28;20552;-83
2023/06/30 07:15:38;;;;;;;7.33;2.10;;;17.60;38.10;;;;;;5064753;28;20506;-80
2023/06/30 07:18:05;;;;;;;7.17;3.47;;;17.70;27.40;;;;;;5069462;28;20458;-80
2023/06/30 07:20:32;;;;;;;4.93;2.17;;;17.60;18.10;;;;;;5071989;28;20466;-83
2023/06/30 07:23:02;;;;;;;8.00;2.23;;;17.80;28.10;;;;;;5067927;28;20791;-83
2023/06/30 07:25:29;;;;;;;7.47;2.63;;;17.80;38.70;;;;;;5071269;28;20485;-82
2023/06/30 07:27:58;;;;;;;4.07;1.73;;;17.90;28.40;;;;;;5075078;28;20463;-83
2023/06/30 07:30:27;;;;;;;6.37;2.10;;;18.00;7.30;;;;;;5076429;28;20526;-83
2023/06/30 07:32:55;;;;;;;3.63;2.03;;;18.10;1.00;;;;;;5075487;28;20489;-81
2023/06/30 07:35:22;;;;;;;6.50;2.17;;;18.20;1.00;;;;;;5069192;28;20476;-80
2023/06/30 07:37:50;;;;;;;6.03;2.23;;;18.30;1.00;;;;;;5071195;28;20487;-80
2023/06/30 07:40:18;;;;;;;6.60;2.67;;;18.40;1.00;;;;;;5076088;28;20454;-82
2023/06/30 07:42:45;;;;;;;6.20;1.97;;;18.40;1.00;;;;;;5075052;28;20451;-81
2023/06/30 07:45:13;;;;;;;6.13;2.00;;;18.50;1.00;;;;;;5075980;28;20829;-79
2023/06/30 07:47:43;;;;;;;5.27;2.30;;;18.60;1.00;;;;;;5071077;28;20461;-80
2023/06/30 07:50:12;;;;;;;6.20;2.50;;;18.70;1.00;;;;;;5076608;28;20438;-80
2023/06/30 07:52:41;;;;;;;10.00;2.57;;;18.70;1.00;;;;;;5076381;28;20980;-80
2023/06/30 07:55:08;;;;;;;2.67;1.87;;;18.70;99.90;;;;;;5076159;28;20486;-81
2023/06/30 07:57:35;;;;;;;6.30;2.23;;;18.70;1.00;;;;;;5070780;28;20835;-83
2023/06/30 08:00:02;;;;;;;6.03;2.33;;;18.80;99.90;;;;;;5075744;28;20470;-81
2023/06/30 08:02:28;;;;;;;7.73;2.70;;;18.90;1.00;;;;;;5076081;28;20446;-80
2023/06/30 08:04:57;;;;;;;5.60;3.47;;;18.90;99.90;;;;;;5074493;28;20473;-81
2023/06/30 08:07:24;;;;;;;6.00;2.10;;;19.00;1.00;;;;;;5076661;28;20473;-82
2023/06/30 08:09:50;;;;;;;7.40;1.83;;;19.10;99.90;;;;;;5076837;28;20450;-82
2023/06/30 08:12:17;;;;;;;2.50;1.60;;;19.30;99.90;;;;;;5074072;28;20483;-81
2023/06/30 08:14:48;;;;;;;4.10;1.93;;;19.50;99.90;;;;;;5076417;28;20991;-82
2023/06/30 08:17:15;;;;;;;3.07;2.10;;;19.60;1.00;;;;;;5076306;28;20518;-82
2023/06/30 08:19:42;;;;;;;6.60;2.27;;;19.60;1.00;;;;;;5077714;28;20456;-82
2023/06/30 08:22:13;;;;;;;6.07;1.77;;;19.50;41.90;;;;;;5077433;28;20497;-82
2023/06/30 08:24:40;;;;;;;7.17;2.20;;;19.60;99.90;;;;;;5077038;28;20446;-81
2023/06/30 08:27:07;;;;;;;3.67;2.10;;;19.70;1.00;;;;;;5076932;28;20465;-81
2023/06/30 08:29:34;;;;;;;3.70;1.93;;;19.50;99.90;;;;;;5073197;28;20459;-81
2023/06/30 08:32:01;;;;;;;4.50;2.17;;;19.50;99.90;;;;;;5076840;28;20581;-83
2023/06/30 08:34:29;;;;;;;3.10;1.67;;;19.40;35.80;;;;;;5071023;28;20451;-82
2023/06/30 08:36:56;;;;;;;8.83;1.90;;;19.40;99.90;;;;;;5074106;28;20938;-80
2023/06/30 08:39:27;;;;;;;4.03;1.37;;;19.40;1.00;;;;;;5075309;28;20456;-82
2023/06/30 08:41:55;;;;;;;4.50;1.67;;;19.10;99.90;;;;;;5077618;28;20538;-82
2023/06/30 08:44:24;;;;;;;5.83;1.60;;;19.10;1.00;;;;;;5072335;28;20458;-80
2023/06/30 08:46:52;;;;;;;6.80;1.63;;;19.30;1.00;;;;;;5076051;28;20463;-81
2023/06/30 08:49:21;;;;;;;4.43;1.47;;;19.50;99.90;;;;;;5076112;28;20461;-82
2023/06/30 08:51:48;;;;;;;5.67;1.60;;;19.60;99.90;;;;;;5077777;28;20479;-83
2023/06/30 08:54:15;;;;;;;7.50;1.60;;;19.80;94.30;;;;;;5077763;28;20546;-82
2023/06/30 08:56:44;;;;;;;6.93;2.13;;;20.00;1.00;;;;;;5077056;28;20483;-82
2023/06/30 08:59:11;;;;;;;5.13;1.80;;;20.30;1.00;;;;;;5078273;28;20514;-83
2023/06/30 09:01:39;;;;;;;3.60;1.30;;;20.50;1.00;;;;;;5076217;28;20519;-81
2023/06/30 09:04:06;;;;;;;3.70;1.37;;;20.70;7.50;;;;;;5078041;28;20475;-83
2023/06/30 09:06:36;;;;;;;3.73;1.73;;;20.60;19.30;;;;;;5076853;28;20828;-82
2023/06/30 09:09:06;;;;;;;4.50;1.63;;;20.50;1.00;;;;;;5077941;28;20932;-80
2023/06/30 09:11:35;;;;;;;2.30;1.30;;;20.60;1.00;;;;;;5071909;28;20487;-82
2023/06/30 09:14:04;;;;;;;5.27;1.33;;;20.80;1.00;;;;;;5078300;28;20542;-82
2023/06/30 09:16:31;;;;;;;2.80;1.10;;;20.90;1.00;;;;;;5075718;28;20530;-83
2023/06/30 09:18:59;;;;;;;4.37;1.30;;;21.40;1.00;;;;;;5077196;28;20462;-81
2023/06/30 09:21:26;;;;;;;4.47;1.20;;;21.70;1.00;;;;;;5072874;28;20546;-82
2023/06/30 09:23:52;;;;;;;2.63;1.27;;;21.80;1.00;;;;;;5062978;28;20547;-82
2023/06/30 09:26:19;;;;;;;2.50;1.20;;;21.90;1.00;;;;;;5074886;28;20570;-84
2023/06/30 09:28:46;;;;;;;5.10;1.57;;;22.10;1.00;;;;;;5081404;28;21229;-84
2023/06/30 09:31:15;;;;;;;2.97;1.20;;;22.20;1.00;;;;;;5065595;28;20971;-84
2023/06/30 09:33:47;;;;;;;3.30;1.50;;;22.10;1.00;;;;;;5060065;28;20440;-84
2023/06/30 09:36:18;;;;;;;3.50;1.53;;;21.80;1.00;;;;;;5059057;28;20464;-83
2023/06/30 09:38:45;;;;;;;2.30;1.30;;;21.80;1.00;;;;;;5059653;28;20451;-84
2023/06/30 09:41:20;;;;;;;6.67;1.90;;;22.10;1.00;;;;;;5074102;28;21048;-84
2023/06/30 09:43:48;;;;;;;2.87;1.20;;;22.50;1.00;;;;;;5079540;28;20970;-84
2023/06/30 09:46:20;;;;;;;3.93;1.20;;;22.70;1.00;;;;;;5069043;28;20474;-84
2023/06/30 09:48:47;;;;;;;2.73;1.57;;;23.00;1.00;;;;;;5072139;28;20900;-84
2023/06/30 09:51:19;;;;;;;6.70;1.50;;;23.20;1.00;;;;;;5078216;28;20451;-84
2023/06/30 09:53:47;;;;;;;3.33;1.27;;;23.10;1.00;;;;;;5079942;28;20427;-84
2023/06/30 09:56:21;;;;;;;7.63;1.60;;;23.10;1.00;;;;;;5079885;28;20501;-84
2023/06/30 09:58:48;;;;;;;4.37;1.30;;;23.30;1.00;;;;;;5079649;28;20427;-81
2023/06/30 10:01:21;;;;;;;5.53;1.47;;;23.60;1.00;;;;;;5080823;28;20469;-81
2023/06/30 10:03:48;;;;;;;3.37;1.37;;;24.10;1.00;;;;;;5073433;28;20530;-82
2023/06/30 10:06:17;;;;;;;7.03;2.13;;;24.50;1.00;;;;;;5073857;28;20464;-82
2023/06/30 10:08:44;;;;;;;2.80;1.30;;;24.60;1.00;;;;;;5058656;28;20535;-82
2023/06/30 10:11:11;;;;;;;4.30;1.60;;;24.80;1.00;;;;;;5058967;28;20443;-81
2023/06/30 10:13:41;;;;;;;3.60;1.40;;;24.90;1.00;;;;;;5058049;28;20688;-81
2023/06/30 10:16:09;;;;;;;4.90;1.50;;;25.00;1.00;;;;;;5055816;28;20466;-79
2023/06/30 10:18:45;;;;;;;4.57;1.27;;;25.30;99.90;;;;;;5075032;28;20459;-81
2023/06/30 10:21:12;;;;;;;2.77;1.10;;;25.50;1.00;;;;;;5078718;28;20459;-82
2023/06/30 10:23:42;;;;;;;2.70;1.20;;;25.60;1.00;;;;;;5068373;28;20462;-79
2023/06/30 10:26:13;;;;;;;6.27;1.30;;;25.80;99.90;;;;;;5072177;28;20471;-80
2023/06/30 10:28:41;;;;;;;3.10;1.23;;;25.60;99.90;;;;;;5076430;28;20497;-80
2023/06/30 10:31:10;;;;;;;4.83;1.50;;;25.20;99.90;;;;;;5073384;28;20448;-81
2023/06/30 10:33:38;;;;;;;3.30;1.30;;;24.70;99.90;;;;;;5059692;28;20486;-80
2023/06/30 10:36:06;;;;;;;4.20;1.30;;;24.50;99.90;;;;;;5072792;28;20474;-80
2023/06/30 10:38:33;;;;;;;8.23;1.47;;;24.20;99.90;;;;;;5073599;28;20447;-80
2023/06/30 10:41:17;;;;;;;2.90;1.20;;;24.40;99.90;;;;;;5077782;28;20457;-80
2023/06/30 10:44:09;;;;;;;4.73;1.30;;;24.70;99.90;;;;;;5059540;28;20551;-80
2023/06/30 10:47:00;;;;;;;6.80;2.20;;;24.80;99.90;;;;;;5068535;28;20920;-78
2023/06/30 10:49:30;;;;;;;6.30;2.33;;;24.80;99.90;;;;;;5061687;28;20454;-79
2023/06/30 10:51:58;;;;;;;4.27;1.30;;;24.70;99.90;;;;;;5076391;28;20531;-80
2023/06/30 10:54:27;;;;;;;2.33;1.20;;;24.40;99.90;;;;;;5078250;28;20447;-81
2023/06/30 10:57:06;;;;;;;2.80;1.70;;;24.00;99.90;;;;;;5058449;28;20610;-80
2023/06/30 10:59:38;;;;;;;2.93;1.43;;;23.70;99.90;;;;;;5068173;28;20968;-78
2023/06/30 11:02:15;;;;;;;3.30;1.13;;;23.90;99.90;;;;;;5081377;28;20454;-80
2023/06/30 11:04:45;;;;;;;3.93;1.00;;;24.50;99.90;;;;;;5083680;28;20446;-80
2023/06/30 11:07:17;;;;;;;2.30;1.10;;;24.90;99.90;;;;;;5064510;28;20452;-80
2023/06/30 11:10:03;;;;;;;3.10;1.30;;;24.70;99.90;;;;;;5085714;28;20506;-79
2023/06/30 11:12:51;;;;;;;2.00;1.10;;;24.40;99.90;;;;;;5084240;28;20542;-79
2023/06/30 11:15:29;;;;;;;2.07;1.27;;;24.90;99.90;;;;;;5079780;28;20474;-80
2023/06/30 11:18:00;;;;;;;3.00;1.47;;;25.30;99.90;;;;;;5083769;28;20506;-80
2023/06/30 11:20:30;;;;;;;3.83;1.20;;;25.50;99.90;;;;;;5081199;28;20819;-78
2023/06/30 11:23:00;;;;;;;2.83;1.30;;;25.10;99.90;;;;;;5076349;28;20474;-80
2023/06/30 11:25:27;;;;;;;3.60;1.00;;;25.00;99.90;;;;;;5066356;28;20467;-81
2023/06/30 11:27:55;;;;;;;3.57;1.40;;;24.80;99.90;;;;;;5081488;28;20522;-81
2023/06/30 11:30:23;;;;;;;2.87;1.10;;;24.90;99.90;;;;;;5081140;28;20454;-81
2023/06/30 11:32:56;;;;;;;4.57;1.27;;;25.00;99.90;;;;;;5081696;28;20483;-81
2023/06/30 11:35:23;;;;;;;3.53;0.90;;;24.90;99.90;;;;;;5087259;28;20479;-81
2023/06/30 11:37:52;;;;;;;5.07;1.20;;;24.50;99.90;;;;;;5082186;28;20453;-81
2023/06/30 11:40:19;;;;;;;2.00;1.20;;;24.00;99.90;;;;;;5065423;28;20440;-81
2023/06/30 11:42:46;;;;;;;2.10;0.90;;;23.70;99.90;;;;;;5081493;28;20496;-81
2023/06/30 11:45:19;;;;;;;3.13;1.40;;;23.50;99.90;;;;;;5079124;28;20551;-85
2023/06/30 11:47:48;;;;;;;2.97;1.10;;;23.40;99.90;;;;;;5079443;28;20455;-82
2023/06/30 11:50:15;;;;;;;2.73;1.30;;;23.40;99.90;;;;;;5087475;28;20454;-81
2023/06/30 11:52:42;;;;;;;4.30;1.60;;;23.60;99.90;;;;;;5102085;28;20482;-82
2023/06/30 11:55:13;;;;;;;2.57;1.13;;;23.70;99.90;;;;;;5101746;28;20729;-80
2023/06/30 11:57:41;;;;;;;3.00;1.20;;;23.70;99.90;;;;;;5085524;28;20447;-80
2023/06/30 12:00:11;;;;;;;1.63;0.80;;;23.60;99.90;;;;;;5073252;28;20456;-81
2023/06/30 12:02:38;;;;;;;2.93;1.10;;;23.60;99.90;;;;;;5075761;28;20510;-81
2023/06/30 12:05:12;;;;;;;2.53;1.57;;;23.50;99.90;;;;;;5076332;28;20493;-82
2023/06/30 12:07:39;;;;;;;4.10;1.20;;;23.20;99.90;;;;;;5076430;28;20507;-80
2023/06/30 12:10:08;;;;;;;6.40;1.40;;;23.30;99.90;;;;;;5063282;28;20531;-81
2023/06/30 12:12:39;;;;;;;2.10;1.10;;;23.40;99.90;;;;;;5077215;28;20479;-81
2023/06/30 12:15:09;;;;;;;6.47;1.30;;;23.70;99.90;;;;;;5079558;28;20486;-80
2023/06/30 12:17:42;;;;;;;3.03;1.30;;;24.00;99.90;;;;;;5077369;28;20538;-83
2023/06/30 12:20:10;;;;;;;3.87;1.83;;;24.20;99.90;;;;;;5080837;28;20457;-80
2023/06/30 12:22:41;;;;;;;4.10;1.10;;;24.40;99.90;;;;;;5078509;28;20458;-80
2023/06/30 12:25:11;;;;;;;4.10;1.00;;;24.60;99.90;;;;;;5077203;28;20547;-79
2023/06/30 12:27:43;;;;;;;6.10;1.17;;;24.60;99.90;;;;;;5075757;28;20467;-81
2023/06/30 12:30:17;;;;;;;2.10;1.10;;;24.40;99.90;;;;;;5073112;28;20459;-81
2023/06/30 12:32:44;;;;;;;3.00;1.33;;;24.10;99.90;;;;;;5071655;28;20482;-80
2023/06/30 12:35:14;;;;;;;3.47;1.30;;;23.90;99.90;;;;;;5068964;28;20498;-79
2023/06/30 12:37:44;;;;;;;2.50;1.10;;;23.70;99.90;;;;;;5073293;28;20535;-82
2023/06/30 12:40:13;;;;;;;3.40;1.27;;;23.60;99.90;;;;;;5063816;28;20452;-80
2023/06/30 12:42:46;;;;;;;3.00;1.20;;;23.40;99.90;;;;;;5078550;28;20518;-81
2023/06/30 12:45:13;;;;;;;2.97;1.60;;;23.50;99.90;;;;;;5090869;28;20490;-79
2023/06/30 12:47:40;;;;;;;3.93;1.53;;;23.80;99.90;;;;;;5082776;28;20451;-83
2023/06/30 12:50:07;;;;;;;2.80;1.30;;;24.20;99.90;;;;;;5076403;28;20963;-84
2023/06/30 12:52:35;;;;;;;2.70;1.30;;;24.70;99.90;;;;;;5079980;28;20459;-82
2023/06/30 12:55:02;;;;;;;3.90;1.57;;;25.00;99.90;;;;;;5077112;28;20543;-82
2023/06/30 12:57:29;;;;;;;3.93;1.70;;;25.50;99.90;;;;;;5082517;28;20447;-82